createdAt,value
2022-08-12T00:01:09.015Z,99.90
2022-08-12T00:03:42.001Z,99.90
2022-08-12T00:06:15.602Z,99.90
2022-08-12T00:08:48.085Z,99.90
2022-08-12T00:11:20.455Z,99.90
2022-08-12T00:13:52.926Z,99.90
2022-08-12T00:16:25.568Z,99.90
2022-08-12T00:18:57.878Z,99.90
2022-08-12T00:21:30.484Z,99.90
2022-08-12T00:24:03.959Z,99.90
2022-08-12T00:26:36.635Z,99.90
2022-08-12T00:29:09.293Z,99.90
2022-08-12T00:31:45.887Z,99.90
2022-08-12T00:34:21.771Z,99.90
2022-08-12T00:37:00.860Z,99.90
2022-08-12T00:39:31.258Z,99.90
2022-08-12T00:42:03.998Z,99.90
2022-08-12T00:44:34.934Z,99.90
2022-08-12T00:47:07.073Z,99.90
2022-08-12T00:49:40.047Z,99.90
2022-08-12T00:52:11.742Z,99.90
2022-08-12T00:54:45.531Z,99.90
2022-08-12T00:57:18.709Z,99.90
2022-08-12T00:59:52.439Z,99.90
2022-08-12T01:02:25.833Z,99.50
2022-08-12T01:05:00.368Z,99.50
2022-08-12T01:07:33.576Z,99.60
2022-08-12T01:10:07.597Z,99.50
2022-08-12T01:12:40.817Z,99.30
2022-08-12T01:15:14.449Z,99.20
2022-08-12T01:17:47.454Z,99.10
2022-08-12T01:20:21.059Z,99.10
2022-08-12T01:22:54.216Z,98.60
2022-08-12T01:25:28.702Z,99.00
2022-08-12T01:28:01.646Z,99.10
2022-08-12T01:30:35.094Z,98.90
2022-08-12T01:33:07.884Z,99.00
2022-08-12T01:35:41.376Z,99.20
2022-08-12T01:38:13.801Z,99.10
2022-08-12T01:40:47.308Z,99.10
2022-08-12T01:43:22.035Z,98.60
2022-08-12T01:45:57.642Z,99.10
2022-08-12T01:48:30.059Z,98.80
2022-08-12T01:51:06.219Z,98.80
2022-08-12T01:53:50.808Z,98.70
2022-08-12T01:56:11.930Z,98.50
2022-08-12T01:58:46.595Z,98.20
2022-08-12T02:01:18.121Z,98.00
2022-08-12T02:03:53.084Z,97.70
2022-08-12T02:06:27.639Z,97.70
2022-08-12T02:09:03.093Z,97.80
2022-08-12T02:11:36.399Z,97.90
2022-08-12T02:14:10.916Z,97.80
2022-08-12T02:16:45.677Z,98.00
2022-08-12T02:19:22.395Z,97.80
2022-08-12T02:21:54.041Z,98.00
2022-08-12T02:24:26.398Z,98.00
2022-08-12T02:27:00.370Z,98.30
2022-08-12T02:29:31.962Z,98.30
2022-08-12T02:32:03.518Z,98.00
2022-08-12T02:34:35.999Z,98.30
2022-08-12T02:37:07.956Z,97.50
2022-08-12T02:39:41.908Z,97.50
2022-08-12T02:42:15.738Z,97.50
2022-08-12T02:44:49.040Z,97.50
2022-08-12T02:47:59.650Z,96.70
2022-08-12T02:49:57.462Z,96.70
2022-08-12T02:52:29.721Z,96.50
2022-08-12T02:55:05.851Z,96.40
2022-08-12T02:57:37.402Z,96.50
2022-08-12T03:00:13.425Z,96.30
2022-08-12T03:02:45.817Z,95.80
2022-08-12T03:05:18.717Z,96.20
2022-08-12T03:07:59.539Z,96.10
2022-08-12T03:10:36.948Z,95.80
2022-08-12T03:13:00.401Z,95.20
2022-08-12T03:15:32.361Z,96.20
2022-08-12T03:18:26.931Z,95.30
2022-08-12T03:20:41.537Z,95.60
2022-08-12T03:23:23.138Z,95.30
2022-08-12T03:25:47.340Z,94.90
2022-08-12T03:28:23.533Z,94.70
2022-08-12T03:30:56.761Z,94.70
2022-08-12T03:33:28.359Z,94.50
2022-08-12T03:36:01.488Z,94.40
2022-08-12T03:38:37.936Z,94.80
2022-08-12T03:41:12.030Z,94.70
2022-08-12T03:43:46.637Z,94.50
2022-08-12T03:46:21.188Z,94.70
2022-08-12T03:48:53.482Z,95.40
2022-08-12T03:51:25.764Z,95.10
2022-08-12T03:53:58.213Z,95.40
2022-08-12T03:59:20.989Z,95.40
2022-08-12T04:01:54.329Z,95.40
2022-08-12T04:04:26.833Z,96.10
2022-08-12T04:06:59.367Z,96.00
2022-08-12T04:09:31.455Z,95.90
2022-08-12T04:12:04.303Z,95.90
2022-08-12T04:14:36.131Z,95.90
2022-08-12T04:17:07.386Z,95.40
2022-08-12T04:19:38.944Z,95.40
2022-08-12T04:22:11.300Z,95.20
2022-08-12T04:24:42.857Z,95.70
2022-08-12T04:27:15.481Z,95.80
2022-08-12T04:30:16.934Z,95.70
2022-08-12T04:32:19.010Z,95.50
2022-08-12T04:34:50.191Z,95.70
2022-08-12T04:37:21.546Z,95.60
2022-08-12T04:39:57.650Z,95.70
2022-08-12T04:42:28.591Z,96.10
2022-08-12T04:44:59.531Z,96.10
2022-08-12T04:47:30.946Z,95.90
2022-08-12T04:50:03.375Z,96.10
2022-08-12T04:52:35.770Z,95.70
2022-08-12T04:55:07.154Z,96.00
2022-08-12T04:57:38.616Z,96.30
2022-08-12T05:00:15.740Z,96.20
2022-08-12T05:02:46.417Z,96.30
2022-08-12T05:05:21.279Z,96.30
2022-08-12T05:07:54.546Z,96.40
2022-08-12T05:10:33.538Z,96.20
2022-08-12T05:13:01.292Z,96.40
2022-08-12T05:15:32.407Z,96.30
2022-08-12T05:18:22.965Z,96.40
2022-08-12T05:20:54.048Z,96.50
2022-08-12T05:23:25.153Z,96.60
2022-08-12T05:25:58.261Z,96.30
2022-08-12T05:28:31.669Z,96.30
2022-08-12T05:31:03.536Z,96.00
2022-08-12T05:33:36.834Z,95.60
2022-08-12T05:36:09.946Z,95.80
2022-08-12T05:38:42.370Z,96.00
2022-08-12T05:41:14.575Z,96.30
2022-08-12T05:43:45.227Z,96.20
2022-08-12T05:46:17.639Z,96.20
2022-08-12T05:48:48.570Z,96.40
2022-08-12T05:51:21.296Z,96.50
2022-08-12T05:53:52.641Z,96.60
2022-08-12T05:56:26.186Z,96.70
2022-08-12T05:58:58.288Z,96.90
2022-08-12T06:02:10.937Z,96.80
2022-08-12T06:04:02.459Z,97.00
2022-08-12T06:06:38.977Z,97.00
2022-08-12T06:09:07.307Z,97.40
2022-08-12T06:11:38.561Z,97.10
2022-08-12T06:14:11.785Z,97.10
2022-08-12T06:16:42.459Z,97.00
2022-08-12T06:19:13.814Z,97.10
2022-08-12T06:21:44.647Z,97.70
2022-08-12T06:24:15.598Z,97.20
2022-08-12T06:26:46.564Z,97.30
2022-08-12T06:30:06.594Z,97.20
2022-08-12T06:31:51.785Z,97.10
2022-08-12T06:35:26.610Z,96.70
2022-08-12T06:36:55.741Z,96.40
2022-08-12T06:39:27.118Z,96.40
2022-08-12T06:42:27.753Z,96.60
2022-08-12T06:44:33.439Z,96.70
2022-08-12T06:47:05.812Z,96.60
2022-08-12T06:49:38.091Z,96.20
2022-08-12T06:52:09.225Z,96.00
2022-08-12T06:54:40.660Z,96.40
2022-08-12T06:57:57.370Z,95.90
2022-08-12T06:59:46.220Z,95.60
2022-08-12T07:02:17.281Z,95.40
2022-08-12T07:04:49.648Z,95.50
2022-08-12T07:07:22.593Z,95.50
2022-08-12T07:10:05.527Z,95.30
2022-08-12T07:12:26.947Z,95.80
2022-08-12T07:14:59.277Z,95.10
2022-08-12T07:17:31.755Z,94.90
2022-08-12T07:20:04.676Z,95.60
2022-08-12T07:22:35.584Z,95.10
2022-08-12T07:25:08.388Z,95.50
2022-08-12T07:27:42.260Z,95.90
2022-08-12T07:30:15.593Z,95.80
2022-08-12T07:32:47.927Z,95.80
2022-08-12T07:35:20.968Z,95.80
2022-08-12T07:37:53.982Z,95.90
2022-08-12T07:40:26.028Z,96.10
2022-08-12T07:42:58.085Z,95.10
2022-08-12T07:45:29.158Z,95.30
2022-08-12T07:48:00.344Z,95.40
2022-08-12T07:50:42.584Z,95.90
2022-08-12T07:53:10.320Z,95.60
2022-08-12T07:55:41.182Z,95.60
2022-08-12T07:58:12.518Z,95.70
2022-08-12T08:06:18.871Z,95.80
2022-08-12T08:08:48.723Z,95.80
2022-08-12T08:11:21.184Z,95.80
2022-08-12T08:13:52.599Z,95.90
2022-08-12T08:16:23.643Z,96.00
2022-08-12T08:18:55.808Z,96.00
2022-08-12T08:21:28.025Z,96.10
2022-08-12T08:24:05.098Z,96.20
2022-08-12T08:26:33.404Z,95.90
2022-08-12T08:29:04.337Z,96.00
2022-08-12T08:31:35.979Z,96.20
2022-08-12T08:34:47.388Z,96.10
2022-08-12T08:36:41.548Z,96.00
2022-08-12T08:39:17.582Z,95.60
2022-08-12T08:42:16.577Z,95.60
2022-08-12T08:44:22.338Z,95.90
2022-08-12T08:46:55.093Z,96.00
2022-08-12T08:49:27.062Z,95.90
2022-08-12T08:51:57.906Z,96.00
2022-08-12T08:54:28.875Z,95.80
2022-08-12T08:56:59.757Z,96.00
2022-08-12T08:59:31.028Z,95.90
2022-08-12T09:02:03.884Z,96.00
2022-08-12T09:05:12.546Z,96.10
2022-08-12T09:07:16.851Z,96.00
2022-08-12T09:10:02.271Z,96.10
2022-08-12T09:12:14.710Z,96.20
2022-08-12T09:14:51.188Z,96.20
2022-08-12T09:17:21.706Z,96.30
2022-08-12T09:19:58.046Z,96.20
2022-08-12T09:27:57.863Z,96.60
2022-08-12T09:30:08.857Z,96.60
2022-08-12T09:33:05.274Z,96.60
2022-08-12T09:35:18.489Z,96.50
2022-08-12T09:37:57.936Z,96.50
2022-08-12T09:41:01.757Z,96.70
2022-08-12T09:43:16.939Z,96.50
2022-08-12T09:46:11.105Z,97.10
2022-08-12T09:48:01.068Z,96.70
2022-08-12T09:50:33.594Z,96.60
2022-08-12T09:53:15.411Z,96.50
2022-08-12T09:56:07.359Z,96.40
2022-08-12T09:58:57.395Z,96.60
2022-08-12T10:00:53.047Z,96.50
2022-08-12T10:03:31.942Z,96.50
2022-08-12T10:06:26.564Z,96.70
2022-08-12T10:08:34.278Z,96.00
2022-08-12T10:11:20.072Z,96.10
2022-08-12T10:13:44.937Z,96.30
2022-08-12T10:16:22.361Z,96.10
2022-08-12T10:18:55.011Z,96.10
2022-08-12T10:21:35.758Z,96.00
2022-08-12T10:24:01.406Z,96.00
2022-08-12T10:26:39.423Z,96.20
2022-08-12T10:29:27.723Z,96.30
2022-08-12T10:32:20.182Z,96.30
2022-08-12T10:34:26.010Z,96.30
2022-08-12T10:36:52.061Z,96.50
2022-08-12T10:40:03.290Z,96.50
2022-08-12T10:41:59.828Z,96.50
2022-08-12T10:44:31.014Z,96.40
2022-08-12T10:47:02.030Z,96.40
2022-08-12T10:50:02.439Z,96.50
2022-08-12T10:52:33.973Z,96.60
2022-08-12T10:54:43.799Z,96.70
2022-08-12T10:57:18.534Z,96.80
2022-08-12T11:00:31.125Z,96.90
2022-08-12T11:04:18.211Z,97.00
2022-08-12T11:04:58.935Z,96.90
2022-08-12T11:08:37.978Z,97.00
2022-08-12T11:10:04.218Z,97.00
2022-08-12T11:12:58.133Z,97.00
2022-08-12T11:15:19.431Z,97.00
2022-08-12T11:17:51.902Z,97.00
2022-08-12T11:20:15.153Z,97.10
2022-08-12T11:22:57.777Z,97.10
2022-08-12T11:25:19.811Z,97.20
2022-08-12T11:27:54.326Z,97.20
2022-08-12T11:30:31.046Z,97.20
2022-08-12T11:32:57.611Z,97.30
2022-08-12T11:35:29.685Z,97.30
2022-08-12T11:38:03.576Z,97.30
2022-08-12T11:40:34.623Z,97.30
2022-08-12T11:43:18.845Z,97.40
2022-08-12T11:45:39.038Z,97.40
2022-08-12T11:48:10.178Z,97.40
2022-08-12T11:50:44.562Z,97.40
2022-08-12T11:53:58.197Z,97.20
2022-08-12T11:55:47.681Z,97.40
2022-08-12T11:59:02.983Z,97.90
2022-08-12T12:03:23.277Z,97.70
2022-08-12T12:05:54.200Z,97.60
2022-08-12T12:08:41.123Z,97.60
2022-08-12T12:11:00.687Z,97.70
2022-08-12T12:14:07.657Z,97.70
2022-08-12T12:16:05.908Z,97.80
2022-08-12T12:18:36.640Z,97.80
2022-08-12T12:21:10.193Z,97.90
2022-08-12T12:23:47.192Z,97.90
2022-08-12T12:26:35.095Z,97.90
2022-08-12T12:28:54.191Z,97.90
2022-08-12T12:32:11.247Z,97.90
2022-08-12T12:33:58.020Z,97.90
2022-08-12T12:36:27.964Z,98.00
2022-08-12T12:38:55.980Z,98.00
2022-08-12T12:42:41.464Z,98.00
2022-08-12T12:44:03.955Z,98.00
2022-08-12T12:46:31.359Z,98.00
2022-08-12T12:49:10.826Z,98.10
2022-08-12T12:51:48.734Z,98.10
2022-08-12T12:54:11.036Z,98.00
2022-08-12T12:56:43.536Z,98.00
2022-08-12T12:59:54.913Z,98.20
2022-08-12T13:01:47.236Z,98.20
2022-08-12T13:04:20.126Z,98.20
2022-08-12T13:06:53.541Z,98.20
2022-08-12T13:09:24.292Z,98.60
2022-08-12T13:11:56.555Z,98.40
2022-08-12T13:14:31.207Z,98.40
2022-08-12T13:17:02.674Z,98.40
2022-08-12T13:19:44.485Z,98.70
2022-08-12T13:22:15.968Z,98.80
2022-08-12T13:24:52.223Z,98.80
2022-08-12T13:27:22.215Z,98.70
2022-08-12T13:29:53.378Z,98.60
2022-08-12T13:32:31.278Z,98.60
2022-08-12T13:35:19.840Z,98.60
2022-08-12T13:37:44.030Z,98.50
2022-08-12T13:40:12.558Z,98.50
2022-08-12T13:42:45.940Z,98.50
2022-08-12T13:45:17.168Z,98.60
2022-08-12T13:47:50.537Z,98.60
2022-08-12T13:50:22.667Z,98.70
2022-08-12T13:53:06.134Z,98.70
2022-08-12T13:55:34.522Z,98.80
2022-08-12T13:58:12.559Z,98.90
2022-08-12T14:00:42.937Z,99.00
2022-08-12T14:03:15.131Z,99.00
2022-08-12T14:05:46.721Z,99.10
2022-08-12T14:08:21.756Z,99.20
2022-08-12T14:10:56.123Z,99.30
2022-08-12T14:14:03.230Z,99.40
2022-08-12T14:16:04.648Z,99.60
2022-08-12T14:18:37.472Z,99.90
2022-08-12T14:21:18.206Z,99.90
2022-08-12T14:24:04.638Z,99.90
2022-08-12T14:26:23.970Z,99.90
2022-08-12T14:28:57.654Z,99.90
2022-08-12T14:31:31.954Z,99.90
2022-08-12T14:34:05.110Z,99.90
2022-08-12T14:36:38.599Z,99.90
2022-08-12T14:39:11.051Z,99.90
2022-08-12T14:41:48.468Z,99.90
2022-08-12T14:44:59.287Z,99.90
2022-08-12T14:46:50.256Z,99.90
2022-08-12T14:50:01.396Z,99.90
2022-08-12T14:53:13.595Z,99.90
2022-08-12T14:57:19.363Z,99.90
2022-08-12T14:59:57.342Z,99.90
2022-08-12T15:02:10.446Z,99.90
2022-08-12T15:04:41.246Z,99.90
2022-08-12T15:07:43.845Z,99.90
2022-08-12T15:09:47.324Z,99.90
2022-08-12T15:12:18.571Z,99.90
2022-08-12T15:14:50.677Z,99.90
2022-08-12T15:17:37.916Z,99.90
2022-08-12T15:20:27.833Z,99.90
2022-08-12T15:22:38.834Z,99.90
2022-08-12T15:24:58.082Z,99.90
2022-08-12T15:28:03.725Z,99.90
2022-08-12T15:30:02.526Z,99.90
2022-08-12T15:32:33.759Z,99.90
2022-08-12T15:35:04.724Z,99.90
2022-08-12T15:38:09.028Z,99.90
2022-08-12T15:40:10.574Z,99.90
2022-08-12T15:42:41.518Z,99.90
2022-08-12T15:45:16.926Z,99.90
2022-08-12T15:47:49.755Z,99.90
2022-08-12T15:50:23.076Z,99.90
2022-08-12T15:52:50.663Z,99.90
2022-08-12T15:55:24.049Z,99.90
2022-08-12T15:57:58.954Z,99.90
2022-08-12T16:00:33.575Z,99.90
2022-08-12T16:03:13.627Z,99.90
2022-08-12T16:06:16.785Z,99.90
2022-08-12T16:08:27.237Z,99.90
2022-08-12T16:10:49.228Z,99.90
2022-08-12T16:13:25.261Z,99.90
2022-08-12T16:16:02.608Z,99.90
2022-08-12T16:18:27.960Z,99.90
2022-08-12T16:21:00.445Z,99.90
2022-08-12T16:23:51.266Z,99.90
2022-08-12T16:26:14.237Z,99.90
2022-08-12T16:28:41.125Z,99.90
2022-08-12T16:31:23.035Z,99.90
2022-08-12T16:33:59.028Z,99.90
2022-08-12T16:36:26.561Z,99.90
2022-08-12T16:38:57.722Z,99.90
2022-08-12T16:41:39.708Z,99.90
2022-08-12T16:44:06.679Z,99.90
2022-08-12T16:46:57.555Z,99.90
2022-08-12T16:49:23.081Z,99.90
2022-08-12T16:51:56.035Z,99.90
2022-08-12T16:54:26.870Z,99.90
2022-08-12T16:57:00.276Z,99.90
2022-08-12T16:59:54.523Z,99.90
2022-08-12T17:02:06.646Z,99.90
2022-08-12T17:04:40.461Z,99.90
2022-08-12T17:07:15.585Z,99.90
2022-08-12T17:09:50.729Z,99.90
2022-08-12T17:12:23.118Z,99.90
2022-08-12T17:14:55.584Z,99.90
2022-08-12T17:17:39.186Z,99.90
2022-08-12T17:20:34.925Z,99.90
2022-08-12T17:22:35.962Z,99.90
2022-08-12T17:25:14.711Z,99.90
2022-08-12T17:27:44.992Z,99.90
2022-08-12T17:30:17.272Z,99.90
2022-08-12T17:32:49.670Z,99.90
2022-08-12T17:35:23.361Z,99.90
2022-08-12T17:37:56.143Z,99.90
2022-08-12T17:40:35.585Z,99.90
2022-08-12T17:43:03.665Z,99.90
2022-08-12T17:45:35.955Z,99.90
2022-08-12T17:48:10.455Z,99.90
2022-08-12T17:50:45.992Z,99.90
2022-08-12T17:53:20.887Z,99.90
2022-08-12T17:55:54.059Z,99.90
2022-08-12T17:58:35.778Z,99.90
2022-08-12T18:01:02.808Z,99.90
2022-08-12T18:04:04.997Z,99.90
2022-08-12T18:06:14.137Z,99.90
2022-08-12T18:08:54.545Z,99.90
2022-08-12T18:11:38.375Z,99.90
2022-08-12T18:13:52.159Z,99.90
2022-08-12T18:16:24.515Z,99.90
2022-08-12T18:18:59.487Z,99.90
2022-08-12T18:21:27.993Z,99.90
2022-08-12T18:24:02.019Z,99.90
2022-08-12T18:26:34.259Z,99.90
2022-08-12T18:29:05.813Z,99.90
2022-08-12T18:31:44.193Z,99.90
2022-08-12T18:34:10.802Z,99.90
2022-08-12T18:36:41.787Z,99.90
2022-08-12T18:39:19.057Z,99.90
2022-08-12T18:41:48.429Z,99.90
2022-08-12T18:44:20.466Z,99.90
2022-08-12T18:49:46.106Z,99.90
2022-08-12T18:52:19.312Z,99.90
2022-08-12T18:54:54.831Z,99.90
2022-08-12T18:58:07.005Z,99.90
2022-08-12T19:00:06.994Z,99.90
2022-08-12T19:02:36.527Z,99.90
2022-08-12T19:05:10.137Z,99.90
2022-08-12T19:07:49.405Z,99.90
2022-08-12T19:10:18.690Z,99.90
2022-08-12T19:12:56.959Z,99.90
2022-08-12T19:15:27.435Z,99.90
2022-08-12T19:18:03.059Z,99.90
2022-08-12T19:20:34.324Z,99.90
2022-08-12T19:23:07.830Z,99.90
2022-08-12T19:26:00.672Z,99.90
2022-08-12T19:28:11.550Z,99.90
2022-08-12T19:30:45.366Z,99.90
2022-08-12T19:33:19.778Z,99.90
2022-08-12T19:36:24.481Z,99.90
2022-08-12T19:38:27.077Z,99.90
2022-08-12T19:40:59.049Z,99.90
2022-08-12T19:43:59.315Z,99.90
2022-08-12T19:46:05.734Z,99.90
2022-08-12T19:48:36.979Z,99.90
2022-08-12T19:51:22.715Z,99.90
2022-08-12T19:53:57.998Z,99.90
2022-08-12T19:56:13.721Z,99.90
2022-08-12T19:58:48.779Z,99.90
2022-08-12T20:01:20.107Z,99.90
2022-08-12T20:03:59.102Z,99.90
2022-08-12T20:06:28.377Z,99.90
2022-08-12T20:08:57.810Z,99.90
2022-08-12T20:12:13.791Z,99.90
2022-08-12T20:14:02.553Z,99.90
2022-08-12T20:19:10.970Z,99.90
2022-08-12T20:21:42.610Z,99.90
2022-08-12T20:24:15.932Z,99.90
2022-08-12T20:26:48.966Z,99.90
2022-08-12T20:29:22.589Z,99.90
2022-08-12T20:31:53.866Z,99.90
2022-08-12T20:34:26.051Z,99.90
2022-08-12T20:37:04.799Z,99.90
2022-08-12T20:39:52.531Z,99.90
2022-08-12T20:42:07.627Z,99.90
2022-08-12T20:44:42.282Z,99.90
2022-08-12T20:47:20.221Z,99.90
2022-08-12T20:49:46.912Z,99.90
2022-08-12T20:52:19.436Z,99.90
2022-08-12T20:54:51.568Z,99.90
2022-08-12T20:57:24.077Z,99.90
2022-08-12T20:59:55.290Z,99.90
2022-08-12T21:02:30.716Z,99.90
2022-08-12T21:05:02.495Z,99.90
2022-08-12T21:07:34.866Z,99.90
2022-08-12T21:10:08.570Z,99.90
2022-08-12T21:12:40.593Z,99.90
2022-08-12T21:15:23.407Z,99.90
2022-08-12T21:18:01.067Z,99.90
2022-08-12T21:20:22.454Z,99.90
2022-08-12T21:22:51.543Z,99.90
2022-08-12T21:25:22.407Z,99.90
2022-08-12T21:27:58.819Z,99.90
2022-08-12T21:30:34.048Z,99.90
2022-08-12T21:32:58.405Z,99.90
2022-08-12T21:35:29.546Z,99.90
2022-08-12T21:38:01.804Z,99.90
2022-08-12T21:40:36.994Z,99.90
2022-08-12T21:43:06.201Z,99.90
2022-08-12T21:45:47.299Z,99.90
2022-08-12T21:48:12.214Z,99.90
2022-08-12T21:50:43.664Z,99.90
2022-08-12T21:53:15.118Z,99.90
2022-08-12T21:55:48.002Z,99.90
2022-08-12T21:58:21.604Z,99.90
2022-08-12T22:00:54.124Z,99.90
2022-08-12T22:04:02.694Z,99.90
2022-08-12T22:06:00.163Z,99.90
2022-08-12T22:08:33.769Z,99.90
2022-08-12T22:11:05.530Z,99.90
2022-08-12T22:14:07.937Z,99.90
2022-08-12T22:16:10.576Z,99.90
2022-08-12T22:18:50.231Z,99.90
2022-08-12T22:21:24.513Z,99.90
2022-08-12T22:24:04.433Z,99.90
2022-08-12T22:26:29.362Z,99.90
2022-08-12T22:28:58.081Z,99.90
2022-08-12T22:31:29.338Z,99.90
2022-08-12T22:34:02.762Z,99.90
2022-08-12T22:36:33.824Z,99.90
2022-08-12T22:39:07.356Z,99.90
2022-08-12T22:41:42.606Z,99.90
2022-08-12T22:44:15.676Z,99.90
2022-08-12T22:46:53.138Z,99.90
2022-08-12T22:49:44.766Z,99.90
2022-08-12T22:52:03.236Z,99.90
2022-08-12T22:54:36.939Z,99.90
2022-08-12T22:57:11.954Z,99.90
2022-08-12T22:59:51.090Z,99.90
2022-08-12T23:02:13.962Z,99.90
2022-08-12T23:04:44.796Z,99.90
2022-08-12T23:07:16.998Z,99.90
2022-08-12T23:09:49.242Z,99.90
2022-08-12T23:12:22.707Z,99.90
2022-08-12T23:14:54.109Z,99.90
2022-08-12T23:17:40.242Z,99.90
2022-08-12T23:19:57.599Z,99.90
2022-08-12T23:22:36.129Z,99.90
2022-08-12T23:25:00.909Z,99.90
2022-08-12T23:27:44.156Z,99.90
2022-08-12T23:30:18.402Z,99.90
2022-08-12T23:32:38.104Z,99.90
2022-08-12T23:35:10.099Z,99.90
2022-08-12T23:37:47.814Z,99.90
2022-08-12T23:40:17.815Z,99.90
2022-08-12T23:42:48.289Z,99.90
2022-08-12T23:45:31.712Z,99.90
2022-08-12T23:47:55.138Z,99.90
2022-08-12T23:50:33.780Z,99.90
2022-08-12T23:53:03.155Z,99.90
2022-08-12T23:55:40.530Z,99.90
2022-08-12T23:58:20.905Z,99.90
